createdAt,value
2022-08-01T00:03:24.868Z,31.20
2022-08-01T00:13:26.465Z,32.70
2022-08-01T00:23:28.266Z,33.10
2022-08-01T00:33:30.088Z,34.30
2022-08-01T00:43:31.965Z,34.00
2022-08-01T00:53:51.059Z,36.30
2022-08-01T01:03:59.189Z,36.70
2022-08-01T01:14:14.307Z,36.70
2022-08-01T01:24:35.844Z,35.60
2022-08-01T01:34:43.567Z,34.90
2022-08-01T01:44:47.027Z,34.00
2022-08-01T01:54:54.126Z,35.30
2022-08-01T02:04:56.548Z,35.00
2022-08-01T02:14:59.128Z,35.10
2022-08-01T02:25:33.029Z,36.80
2022-08-01T02:36:30.625Z,38.80
2022-08-01T02:46:05.252Z,41.40
2022-08-01T02:56:11.090Z,40.20
2022-08-01T03:06:16.288Z,40.10
2022-08-01T03:16:20.086Z,39.30
2022-08-01T03:26:22.972Z,41.40
2022-08-01T03:36:38.408Z,45.80
2022-08-01T03:47:05.193Z,44.20
2022-08-01T03:57:09.090Z,39.60
2022-08-01T04:07:38.849Z,38.00
2022-08-01T04:17:40.510Z,37.50
2022-08-01T04:27:50.712Z,37.20
2022-08-01T04:37:55.033Z,38.90
2022-08-01T04:47:57.630Z,39.50
2022-08-01T04:57:59.293Z,42.70
2022-08-01T05:08:03.876Z,42.70
2022-08-01T05:18:05.728Z,44.30
2022-08-01T05:28:09.990Z,40.50
2022-08-01T05:38:11.663Z,38.10
2022-08-01T05:48:17.032Z,36.90
2022-08-01T05:58:18.827Z,36.50
2022-08-01T06:08:21.391Z,37.70
2022-08-01T06:18:24.689Z,37.10
2022-08-01T06:28:26.787Z,35.40
2022-08-01T06:38:28.890Z,37.60
2022-08-01T06:48:30.691Z,36.00
2022-08-01T06:58:32.832Z,35.80
2022-08-01T07:08:35.011Z,34.50
2022-08-01T07:18:36.793Z,33.20
2022-08-01T07:28:43.905Z,31.80
2022-08-01T07:38:48.311Z,30.30
2022-08-01T07:48:50.026Z,28.60
2022-08-01T07:58:51.691Z,26.00
2022-08-01T08:08:53.432Z,23.30
2022-08-01T08:18:57.890Z,23.30
2022-08-01T08:29:00.014Z,22.40
2022-08-01T08:39:05.729Z,22.60
2022-08-01T08:49:07.847Z,23.90
2022-08-01T08:59:09.634Z,20.20
2022-08-01T09:09:12.971Z,20.20
2022-08-01T09:19:39.164Z,19.20
2022-08-01T09:29:43.932Z,18.60
2022-08-01T09:39:48.471Z,17.40
2022-08-01T09:49:59.825Z,17.90
2022-08-01T10:11:36.024Z,15.00
2022-08-01T10:21:45.475Z,12.80
2022-08-01T10:32:01.928Z,13.10
2022-08-01T10:42:15.549Z,12.80
2022-08-01T10:52:25.008Z,13.50
2022-08-01T11:02:36.591Z,12.70
2022-08-01T11:12:45.850Z,12.80
2022-08-01T11:23:09.366Z,10.80
2022-08-01T11:33:12.134Z,10.80
2022-08-01T11:43:23.508Z,12.10
2022-08-01T11:53:26.757Z,13.30
2022-08-01T12:03:35.291Z,13.30
2022-08-01T12:13:47.686Z,15.00
2022-08-01T12:23:49.308Z,13.00
2022-08-01T12:33:53.569Z,13.10
2022-08-01T12:43:55.660Z,11.20
2022-08-01T12:54:02.379Z,11.00
2022-08-01T13:04:08.140Z,11.00
2022-08-01T13:14:10.551Z,10.90
2022-08-01T13:24:17.675Z,8.90
2022-08-01T13:34:19.994Z,9.30
2022-08-01T13:44:21.736Z,9.70
2022-08-01T13:54:23.575Z,10.60
2022-08-01T14:04:25.866Z,10.50
2022-08-01T14:14:27.520Z,8.60
2022-08-01T14:24:29.897Z,7.80
2022-08-01T14:34:31.821Z,7.80
2022-08-01T14:44:36.064Z,7.90
2022-08-01T14:54:38.340Z,8.50
2022-08-01T15:04:40.237Z,8.30
2022-08-01T15:14:51.815Z,7.80
2022-08-01T15:24:57.408Z,8.30
2022-08-01T15:35:00.038Z,8.70
2022-08-01T15:45:03.301Z,7.80
2022-08-01T15:55:05.973Z,7.70
2022-08-01T16:05:09.000Z,12.30
2022-08-01T16:15:11.795Z,13.70
2022-08-01T16:25:15.474Z,15.00
2022-08-01T16:35:17.302Z,15.30
2022-08-01T16:45:23.957Z,16.90
2022-08-01T16:55:26.055Z,16.90
2022-08-01T17:05:28.161Z,15.60
2022-08-01T17:15:33.172Z,15.40
2022-08-01T17:25:38.999Z,15.90
2022-08-01T17:35:41.118Z,16.00
2022-08-01T17:45:51.450Z,16.00
2022-08-01T17:55:57.808Z,21.00
2022-08-01T18:06:05.979Z,22.20
2022-08-01T18:16:15.877Z,22.10
2022-08-01T18:26:19.639Z,21.80
2022-08-01T18:36:32.205Z,23.70
2022-08-01T18:46:36.998Z,23.90
2022-08-01T18:56:40.092Z,25.50
2022-08-01T19:06:47.526Z,26.00
2022-08-01T19:16:52.883Z,27.50
2022-08-01T19:27:08.429Z,28.60
2022-08-01T19:37:11.715Z,30.60
2022-08-01T19:47:15.937Z,31.80
2022-08-01T19:57:19.319Z,32.60
2022-08-01T20:07:21.402Z,33.40
2022-08-01T20:17:25.319Z,35.50
2022-08-01T20:27:32.977Z,35.90
2022-08-01T20:38:03.637Z,36.00
2022-08-01T20:48:04.714Z,35.60
2022-08-01T20:58:07.397Z,37.10
2022-08-01T21:08:44.800Z,37.20
2022-08-01T21:29:24.411Z,37.80
2022-08-01T21:39:27.537Z,36.80
2022-08-01T21:49:30.344Z,37.50
2022-08-01T22:00:08.974Z,37.20
2022-08-01T22:10:11.974Z,37.50
2022-08-01T22:20:14.182Z,38.50
2022-08-01T22:30:19.474Z,39.70
2022-08-01T22:40:20.897Z,39.60
2022-08-01T22:50:38.655Z,38.40
2022-08-01T23:00:41.363Z,38.20
2022-08-01T23:10:45.516Z,39.30
2022-08-01T23:20:49.801Z,39.70
2022-08-01T23:30:55.358Z,39.70
2022-08-01T23:41:02.425Z,40.80
2022-08-01T23:51:05.057Z,42.40
